sensor_id;sensor_type;location;lat;lon;timestamp;pressure;altitude;pressure_sealevel;temperature;humidity
43878;BME280;29815;48.184;11.268;2023-05-02T00:01:20;95623.81;;;8.48;100.00
43878;BME280;29815;48.184;11.268;2023-05-02T00:03:49;95623.00;;;8.48;100.00
43878;BME280;29815;48.184;11.268;2023-05-02T00:06:19;95624.34;;;8.45;100.00
43878;BME280;29815;48.184;11.268;2023-05-02T00:08:49;95634.50;;;8.43;100.00
43878;BME280;29815;48.184;11.268;2023-05-02T00:11:20;95621.09;;;8.43;100.00
43878;BME280;29815;48.184;11.268;2023-05-02T00:13:49;95624.25;;;8.35;100.00
43878;BME280;29815;48.184;11.268;2023-05-02T00:16:19;95624.50;;;8.34;100.00
43878;BME280;29815;48.184;11.268;2023-05-02T00:18:48;95625.28;;;8.34;100.00
43878;BME280;29815;48.184;11.268;2023-05-02T00:21:18;95628.16;;;8.28;100.00
43878;BME280;29815;48.184;11.268;2023-05-02T00:23:49;95617.72;;;8.31;100.00
43878;BME280;29815;48.184;11.268;2023-05-02T00:26:20;95628.16;;;8.28;100.00
43878;BME280;29815;48.184;11.268;2023-05-02T00:28:50;95627.84;;;8.24;100.00
43878;BME280;29815;48.184;11.268;2023-05-02T00:31:19;95629.44;;;8.20;100.00
43878;BME280;29815;48.184;11.268;2023-05-02T00:33:49;95625.06;;;8.14;100.00
43878;BME280;29815;48.184;11.268;2023-05-02T00:36:19;95623.94;;;8.10;100.00
43878;BME280;29815;48.184;11.268;2023-05-02T00:38:48;95626.81;;;8.03;100.00
43878;BME280;29815;48.184;11.268;2023-05-02T00:41:19;95623.78;;;7.95;100.00
43878;BME280;29815;48.184;11.268;2023-05-02T00:43:49;95626.66;;;7.88;100.00
43878;BME280;29815;48.184;11.268;2023-05-02T00:46:18;95623.44;;;7.86;100.00
43878;BME280;29815;48.184;11.268;2023-05-02T00:48:48;95620.38;;;7.77;100.00
43878;BME280;29815;48.184;11.268;2023-05-02T00:51:18;95628.66;;;7.76;100.00
43878;BME280;29815;48.184;11.268;2023-05-02T00:53:48;95620.56;;;7.71;100.00
43878;BME280;29815;48.184;11.268;2023-05-02T00:56:19;95625.66;;;7.72;100.00
43878;BME280;29815;48.184;11.268;2023-05-02T00:58:49;95629.09;;;7.68;100.00
43878;BME280;29815;48.184;11.268;2023-05-02T01:01:34;95626.94;;;7.65;100.00
43878;BME280;29815;48.184;11.268;2023-05-02T01:04:23;95633.28;;;7.59;100.00
43878;BME280;29815;48.184;11.268;2023-05-02T01:07:18;95630.53;;;7.54;100.00
43878;BME280;29815;48.184;11.268;2023-05-02T01:10:06;95631.28;;;7.49;100.00
43878;BME280;29815;48.184;11.268;2023-05-02T01:12:50;95639.00;;;7.45;100.00
43878;BME280;29815;48.184;11.268;2023-05-02T01:15:25;95639.47;;;7.42;100.00
43878;BME280;29815;48.184;11.268;2023-05-02T01:18:02;95634.09;;;7.37;100.00
43878;BME280;29815;48.184;11.268;2023-05-02T01:20:37;95641.78;;;7.34;100.00
43878;BME280;29815;48.184;11.268;2023-05-02T01:23:18;95628.91;;;7.31;100.00
43878;BME280;29815;48.184;11.268;2023-05-02T01:26:05;95638.22;;;7.28;100.00
43878;BME280;29815;48.184;11.268;2023-05-02T01:28:58;95632.00;;;7.23;100.00
43878;BME280;29815;48.184;11.268;2023-05-02T01:31:30;95633.84;;;7.22;100.00
43878;BME280;29815;48.184;11.268;2023-05-02T01:34:09;95634.59;;;7.18;100.00
43878;BME280;29815;48.184;11.268;2023-05-02T01:36:43;95636.69;;;7.16;100.00
43878;BME280;29815;48.184;11.268;2023-05-02T01:39:19;95631.59;;;7.14;100.00
43878;BME280;29815;48.184;11.268;2023-05-02T01:41:52;95638.00;;;7.13;100.00
43878;BME280;29815;48.184;11.268;2023-05-02T01:44:24;95633.97;;;7.10;100.00
43878;BME280;29815;48.184;11.268;2023-05-02T01:46:56;95638.75;;;7.08;100.00
43878;BME280;29815;48.184;11.268;2023-05-02T01:49:28;95634.22;;;7.09;100.00
43878;BME280;29815;48.184;11.268;2023-05-02T01:52:03;95633.41;;;7.08;100.00
43878;BME280;29815;48.184;11.268;2023-05-02T01:54:36;95633.97;;;7.10;100.00
43878;BME280;29815;48.184;11.268;2023-05-02T01:57:08;95638.00;;;7.13;100.00
43878;BME280;29815;48.184;11.268;2023-05-02T01:59:42;95637.19;;;7.12;100.00
43878;BME280;29815;48.184;11.268;2023-05-02T02:02:12;95644.69;;;7.10;100.00
43878;BME280;29815;48.184;11.268;2023-05-02T02:04:46;95644.34;;;7.07;100.00
43878;BME280;29815;48.184;11.268;2023-05-02T02:07:17;95649.38;;;7.03;100.00
43878;BME280;29815;48.184;11.268;2023-05-02T02:09:46;95650.75;;;7.06;100.00
43878;BME280;29815;48.184;11.268;2023-05-02T02:12:26;95649.72;;;7.07;100.00
43878;BME280;29815;48.184;11.268;2023-05-02T02:15:12;95648.16;;;7.11;100.00
43878;BME280;29815;48.184;11.268;2023-05-02T02:17:48;95657.53;;;7.13;100.00
43878;BME280;29815;48.184;11.268;2023-05-02T02:20:24;95659.16;;;7.14;100.00
43878;BME280;29815;48.184;11.268;2023-05-02T02:22:58;95659.16;;;7.14;100.00
43878;BME280;29815;48.184;11.268;2023-05-02T02:25:29;95653.81;;;7.14;100.00
43878;BME280;29815;48.184;11.268;2023-05-02T02:28:00;95656.72;;;7.13;100.00
43878;BME280;29815;48.184;11.268;2023-05-02T02:30:31;95659.81;;;7.22;100.00
43878;BME280;29815;48.184;11.268;2023-05-02T02:33:01;95661.34;;;7.18;100.00
43878;BME280;29815;48.184;11.268;2023-05-02T02:35:37;95664.28;;;7.16;100.00
43878;BME280;29815;48.184;11.268;2023-05-02T02:38:16;95664.22;;;7.11;100.00
43878;BME280;29815;48.184;11.268;2023-05-02T02:40:55;95667.75;;;7.17;100.00
43878;BME280;29815;48.184;11.268;2023-05-02T02:43:35;95663.66;;;7.09;100.00
43878;BME280;29815;48.184;11.268;2023-05-02T02:46:19;95667.97;;;7.10;100.00
43878;BME280;29815;48.184;11.268;2023-05-02T02:49:12;95666.72;;;7.18;100.00
43878;BME280;29815;48.184;11.268;2023-05-02T02:51:54;95670.75;;;7.20;100.00
43878;BME280;29815;48.184;11.268;2023-05-02T02:54:33;95664.34;;;7.21;100.00
43878;BME280;29815;48.184;11.268;2023-05-02T02:57:13;95668.41;;;7.24;100.00
43878;BME280;29815;48.184;11.268;2023-05-02T02:59:54;95666.53;;;7.24;100.00
43878;BME280;29815;48.184;11.268;2023-05-02T03:02:31;95677.34;;;7.29;100.00
43878;BME280;29815;48.184;11.268;2023-05-02T03:05:03;95677.75;;;7.21;100.00
43878;BME280;29815;48.184;11.268;2023-05-02T03:07:32;95681.31;;;7.27;100.00
43878;BME280;29815;48.184;11.268;2023-05-02T03:10:04;95680.59;;;7.14;100.00
43878;BME280;29815;48.184;11.268;2023-05-02T03:12:35;95679.47;;;7.10;100.00
43878;BME280;29815;48.184;11.268;2023-05-02T03:15:22;95686.03;;;7.03;100.00
43878;BME280;29815;48.184;11.268;2023-05-02T03:17:59;95690.16;;;6.94;100.00
43878;BME280;29815;48.184;11.268;2023-05-02T03:20:29;95685.53;;;6.89;100.00
43878;BME280;29815;48.184;11.268;2023-05-02T03:23:00;95681.72;;;6.85;100.00
43878;BME280;29815;48.184;11.268;2023-05-02T03:25:30;95689.75;;;6.85;100.00
43878;BME280;29815;48.184;11.268;2023-05-02T03:27:59;95693.19;;;6.81;100.00
43878;BME280;29815;48.184;11.268;2023-05-02T03:30:29;95688.56;;;6.76;100.00
43878;BME280;29815;48.184;11.268;2023-05-02T03:33:00;95693.56;;;6.72;100.00
43878;BME280;29815;48.184;11.268;2023-05-02T03:35:32;95702.41;;;6.73;100.00
43878;BME280;29815;48.184;11.268;2023-05-02T03:38:01;95697.28;;;6.71;100.00
43878;BME280;29815;48.184;11.268;2023-05-02T03:40:31;95695.91;;;6.69;100.00
43878;BME280;29815;48.184;11.268;2023-05-02T03:43:01;95700.44;;;6.68;100.00
43878;BME280;29815;48.184;11.268;2023-05-02T03:45:33;95700.94;;;6.65;100.00
43878;BME280;29815;48.184;11.268;2023-05-02T03:48:04;95708.38;;;6.63;100.00
43878;BME280;29815;48.184;11.268;2023-05-02T03:50:34;95707.47;;;6.58;100.00
43878;BME280;29815;48.184;11.268;2023-05-02T03:53:04;95714.69;;;6.57;100.00
43878;BME280;29815;48.184;11.268;2023-05-02T03:55:44;95716.81;;;6.55;100.00
43878;BME280;29815;48.184;11.268;2023-05-02T03:58:21;95718.34;;;6.51;100.00
43878;BME280;29815;48.184;11.268;2023-05-02T04:00:50;95726.03;;;6.48;100.00
43878;BME280;29815;48.184;11.268;2023-05-02T04:03:22;95721.50;;;6.48;100.00
43878;BME280;29815;48.184;11.268;2023-05-02T04:05:54;95726.50;;;6.44;100.00
43878;BME280;29815;48.184;11.268;2023-05-02T04:08:24;95725.22;;;6.47;100.00
43878;BME280;29815;48.184;11.268;2023-05-02T04:10:54;95727.66;;;6.49;100.00
43878;BME280;29815;48.184;11.268;2023-05-02T04:13:23;95726.13;;;6.53;100.00
43878;BME280;29815;48.184;11.268;2023-05-02T04:15:53;95735.03;;;6.58;100.00
43878;BME280;29815;48.184;11.268;2023-05-02T04:18:27;95736.41;;;6.61;100.00
43878;BME280;29815;48.184;11.268;2023-05-02T04:20:56;95733.75;;;6.61;100.00
43878;BME280;29815;48.184;11.268;2023-05-02T04:23:26;95742.34;;;6.63;100.00
43878;BME280;29815;48.184;11.268;2023-05-02T04:26:00;95737.88;;;6.68;100.00
43878;BME280;29815;48.184;11.268;2023-05-02T04:28:38;95744.25;;;6.79;100.00
43878;BME280;29815;48.184;11.268;2023-05-02T04:31:09;95749.34;;;6.81;100.00
43878;BME280;29815;48.184;11.268;2023-05-02T04:33:40;95750.56;;;6.90;100.00
43878;BME280;29815;48.184;11.268;2023-05-02T04:36:11;95758.34;;;6.91;100.00
43878;BME280;29815;48.184;11.268;2023-05-02T04:38:44;95752.84;;;6.98;100.00
43878;BME280;29815;48.184;11.268;2023-05-02T04:41:15;95770.03;;;7.02;100.00
43878;BME280;29815;48.184;11.268;2023-05-02T04:43:51;95761.06;;;7.08;100.00
43878;BME280;29815;48.184;11.268;2023-05-02T04:46:21;95764.53;;;7.08;100.00
43878;BME280;29815;48.184;11.268;2023-05-02T04:48:53;95762.97;;;7.12;100.00
43878;BME280;29815;48.184;11.268;2023-05-02T04:51:23;95765.16;;;7.16;100.00
43878;BME280;29815;48.184;11.268;2023-05-02T04:53:53;95777.44;;;7.28;100.00
43878;BME280;29815;48.184;11.268;2023-05-02T04:56:23;95778.56;;;7.32;100.00
43878;BME280;29815;48.184;11.268;2023-05-02T04:58:52;95781.88;;;7.39;100.00
43878;BME280;29815;48.184;11.268;2023-05-02T05:01:23;95782.69;;;7.40;100.00
43878;BME280;29815;48.184;11.268;2023-05-02T05:03:56;95779.84;;;7.46;100.00
43878;BME280;29815;48.184;11.268;2023-05-02T05:06:26;95785.06;;;7.53;100.00
43878;BME280;29815;48.184;11.268;2023-05-02T05:08:57;95781.06;;;7.56;100.00
43878;BME280;29815;48.184;11.268;2023-05-02T05:11:27;95785.94;;;7.59;100.00
43878;BME280;29815;48.184;11.268;2023-05-02T05:13:57;95790.34;;;7.65;100.00
43878;BME280;29815;48.184;11.268;2023-05-02T05:16:28;95795.16;;;7.68;100.00
43878;BME280;29815;48.184;11.268;2023-05-02T05:19:00;95803.53;;;7.71;100.00
43878;BME280;29815;48.184;11.268;2023-05-02T05:21:30;95800.69;;;7.78;100.00
43878;BME280;29815;48.184;11.268;2023-05-02T05:24:01;95812.06;;;7.85;100.00
43878;BME280;29815;48.184;11.268;2023-05-02T05:26:30;95790.69;;;7.90;100.00
43878;BME280;29815;48.184;11.268;2023-05-02T05:29:00;95796.34;;;7.94;100.00
43878;BME280;29815;48.184;11.268;2023-05-02T05:31:36;95809.75;;;7.94;100.00
43878;BME280;29815;48.184;11.268;2023-05-02T05:34:07;95804.78;;;8.02;100.00
43878;BME280;29815;48.184;11.268;2023-05-02T05:36:39;95807.47;;;8.02;100.00
43878;BME280;29815;48.184;11.268;2023-05-02T05:39:09;95815.00;;;8.05;100.00
43878;BME280;29815;48.184;11.268;2023-05-02T05:41:40;95823.94;;;8.11;100.00
43878;BME280;29815;48.184;11.268;2023-05-02T05:44:12;95815.47;;;8.19;100.00
43878;BME280;29815;48.184;11.268;2023-05-02T05:46:41;95820.84;;;8.19;100.00
43878;BME280;29815;48.184;11.268;2023-05-02T05:49:15;95819.22;;;8.18;100.00
43878;BME280;29815;48.184;11.268;2023-05-02T05:51:46;95819.78;;;8.20;100.00
43878;BME280;29815;48.184;11.268;2023-05-02T05:54:17;95827.88;;;8.25;100.00
43878;BME280;29815;48.184;11.268;2023-05-02T05:56:46;95825.25;;;8.30;100.00
43878;BME280;29815;48.184;11.268;2023-05-02T05:59:19;95844.13;;;8.35;100.00
43878;BME280;29815;48.184;11.268;2023-05-02T06:01:49;95838.84;;;8.40;100.00
43878;BME280;29815;48.184;11.268;2023-05-02T06:04:23;95833.22;;;8.42;100.00
43878;BME280;29815;48.184;11.268;2023-05-02T06:06:53;95835.16;;;8.46;100.00
43878;BME280;29815;48.184;11.268;2023-05-02T06:09:24;95843.56;;;8.55;100.00
43878;BME280;29815;48.184;11.268;2023-05-02T06:11:53;95846.75;;;8.52;100.00
43878;BME280;29815;48.184;11.268;2023-05-02T06:14:23;95851.06;;;8.53;100.00
43878;BME280;29815;48.184;11.268;2023-05-02T06:16:53;95852.75;;;8.59;100.00
43878;BME280;29815;48.184;11.268;2023-05-02T06:19:25;95858.44;;;8.63;100.00
43878;BME280;29815;48.184;11.268;2023-05-02T06:21:54;95856.63;;;8.68;100.00
43878;BME280;29815;48.184;11.268;2023-05-02T06:24:24;95862.00;;;8.68;100.00
43878;BME280;29815;48.184;11.268;2023-05-02T06:26:54;95863.13;;;8.72;100.00
43878;BME280;29815;48.184;11.268;2023-05-02T06:29:25;95865.34;;;8.80;100.00
43878;BME280;29815;48.184;11.268;2023-05-02T06:31:55;95867.03;;;8.87;100.00
43878;BME280;29815;48.184;11.268;2023-05-02T06:34:26;95872.09;;;8.83;100.00
43878;BME280;29815;48.184;11.268;2023-05-02T06:36:55;95879.94;;;8.90;100.00
43878;BME280;29815;48.184;11.268;2023-05-02T06:39:25;95869.09;;;9.01;100.00
43878;BME280;29815;48.184;11.268;2023-05-02T06:41:56;95883.09;;;9.08;100.00
43878;BME280;29815;48.184;11.268;2023-05-02T06:44:27;95880.53;;;9.19;100.00
43878;BME280;29815;48.184;11.268;2023-05-02T06:46:57;95875.81;;;9.31;100.00
43878;BME280;29815;48.184;11.268;2023-05-02T06:49:28;95880.16;;;9.37;100.00
43878;BME280;29815;48.184;11.268;2023-05-02T06:51:58;95882.72;;;9.48;100.00
43878;BME280;29815;48.184;11.268;2023-05-02T06:54:28;95880.38;;;9.57;100.00
43878;BME280;29815;48.184;11.268;2023-05-02T06:56:58;95883.16;;;9.67;100.00
43878;BME280;29815;48.184;11.268;2023-05-02T06:59:29;95883.78;;;9.79;100.00
43878;BME280;29815;48.184;11.268;2023-05-02T07:01:58;95885.19;;;9.87;100.00
43878;BME280;29815;48.184;11.268;2023-05-02T07:04:33;95885.53;;;9.96;100.00
43878;BME280;29815;48.184;11.268;2023-05-02T07:07:03;95889.38;;;10.05;100.00
43878;BME280;29815;48.184;11.268;2023-05-02T07:09:32;95883.50;;;10.13;100.00
43878;BME280;29815;48.184;11.268;2023-05-02T07:12:02;95885.72;;;10.21;100.00
43878;BME280;29815;48.184;11.268;2023-05-02T07:14:34;95892.00;;;10.32;100.00
43878;BME280;29815;48.184;11.268;2023-05-02T07:17:03;95897.97;;;10.39;100.00
43878;BME280;29815;48.184;11.268;2023-05-02T07:19:34;95895.06;;;10.50;100.00
43878;BME280;29815;48.184;11.268;2023-05-02T07:22:04;95896.50;;;10.68;100.00
43878;BME280;29815;48.184;11.268;2023-05-02T07:24:34;95886.31;;;10.75;100.00
43878;BME280;29815;48.184;11.268;2023-05-02T07:27:03;95894.66;;;10.79;100.00
43878;BME280;29815;48.184;11.268;2023-05-02T07:29:33;95893.38;;;10.92;100.00
43878;BME280;29815;48.184;11.268;2023-05-02T07:32:03;95904.97;;;10.97;100.00
43878;BME280;29815;48.184;11.268;2023-05-02T07:34:34;95898.78;;;10.97;100.00
43878;BME280;29815;48.184;11.268;2023-05-02T07:37:04;95906.59;;;10.98;100.00
43878;BME280;29815;48.184;11.268;2023-05-02T07:39:33;95907.66;;;10.97;100.00
43878;BME280;29815;48.184;11.268;2023-05-02T07:42:03;95903.09;;;10.93;100.00
43878;BME280;29815;48.184;11.268;2023-05-02T07:44:33;95902.00;;;10.94;100.00
43878;BME280;29815;48.184;11.268;2023-05-02T07:47:04;95907.13;;;11.00;100.00
43878;BME280;29815;48.184;11.268;2023-05-02T07:49:34;95908.25;;;11.09;100.00
43878;BME280;29815;48.184;11.268;2023-05-02T07:52:05;95908.56;;;11.18;100.00
43878;BME280;29815;48.184;11.268;2023-05-02T07:54:35;95915.06;;;11.32;100.00
43878;BME280;29815;48.184;11.268;2023-05-02T07:57:05;95912.69;;;11.46;100.00
43878;BME280;29815;48.184;11.268;2023-05-02T07:59:36;95918.31;;;11.49;100.00
43878;BME280;29815;48.184;11.268;2023-05-02T08:02:06;95919.16;;;11.60;100.00
43878;BME280;29815;48.184;11.268;2023-05-02T08:04:39;95918.66;;;11.73;100.00
43878;BME280;29815;48.184;11.268;2023-05-02T08:07:09;95918.66;;;11.73;100.00
43878;BME280;29815;48.184;11.268;2023-05-02T08:09:38;95920.28;;;11.74;100.00
43878;BME280;29815;48.184;11.268;2023-05-02T08:12:08;95920.03;;;11.81;100.00
43878;BME280;29815;48.184;11.268;2023-05-02T08:14:37;95923.56;;;11.97;100.00
43878;BME280;29815;48.184;11.268;2023-05-02T08:17:07;95932.47;;;12.02;100.00
43878;BME280;29815;48.184;11.268;2023-05-02T08:19:38;95926.81;;;11.99;100.00
43878;BME280;29815;48.184;11.268;2023-05-02T08:22:07;95925.44;;;11.96;100.00
43878;BME280;29815;48.184;11.268;2023-05-02T08:24:37;95923.00;;;12.10;100.00
43878;BME280;29815;48.184;11.268;2023-05-02T08:27:06;95931.66;;;12.12;100.00
43878;BME280;29815;48.184;11.268;2023-05-02T08:29:36;95930.03;;;12.21;100.00
43878;BME280;29815;48.184;11.268;2023-05-02T08:32:05;95928.69;;;12.24;100.00
43878;BME280;29815;48.184;11.268;2023-05-02T08:34:35;95923.00;;;12.40;100.00
43878;BME280;29815;48.184;11.268;2023-05-02T08:37:08;95923.00;;;12.45;100.00
43878;BME280;29815;48.184;11.268;2023-05-02T08:39:39;95926.22;;;12.52;100.00
43878;BME280;29815;48.184;11.268;2023-05-02T08:42:08;95922.41;;;12.59;100.00
43878;BME280;29815;48.184;11.268;2023-05-02T08:44:38;95936.44;;;12.66;100.00
43878;BME280;29815;48.184;11.268;2023-05-02T08:47:10;95933.75;;;12.71;100.00
43878;BME280;29815;48.184;11.268;2023-05-02T08:49:42;95936.16;;;12.82;100.00
43878;BME280;29815;48.184;11.268;2023-05-02T08:52:15;95937.47;;;12.90;100.00
43878;BME280;29815;48.184;11.268;2023-05-02T08:54:46;95940.41;;;13.04;100.00
43878;BME280;29815;48.184;11.268;2023-05-02T08:57:18;95947.16;;;13.11;100.00
43878;BME280;29815;48.184;11.268;2023-05-02T08:59:48;95947.38;;;13.25;100.00
43878;BME280;29815;48.184;11.268;2023-05-02T09:02:26;95946.78;;;13.38;100.00
43878;BME280;29815;48.184;11.268;2023-05-02T09:05:07;95950.88;;;13.31;100.00
43878;BME280;29815;48.184;11.268;2023-05-02T09:07:46;95944.59;;;13.40;100.00
43878;BME280;29815;48.184;11.268;2023-05-02T09:10:16;95948.31;;;13.54;100.00
43878;BME280;29815;48.184;11.268;2023-05-02T09:12:46;95956.13;;;13.61;100.00
43878;BME280;29815;48.184;11.268;2023-05-02T09:15:16;95956.34;;;13.70;100.00
43878;BME280;29815;48.184;11.268;2023-05-02T09:17:48;95962.47;;;13.85;100.00
43878;BME280;29815;48.184;11.268;2023-05-02T09:20:18;95962.50;;;13.80;100.00
43878;BME280;29815;48.184;11.268;2023-05-02T09:22:51;95965.22;;;13.80;100.00
43878;BME280;29815;48.184;11.268;2023-05-02T09:25:20;95957.59;;;13.87;100.00
43878;BME280;29815;48.184;11.268;2023-05-02T09:27:52;95955.16;;;13.86;100.00
43878;BME280;29815;48.184;11.268;2023-05-02T09:30:24;95962.47;;;13.85;100.00
43878;BME280;29815;48.184;11.268;2023-05-02T09:32:54;95973.28;;;13.91;100.00
43878;BME280;29815;48.184;11.268;2023-05-02T09:35:24;95965.72;;;13.87;100.00
43878;BME280;29815;48.184;11.268;2023-05-02T09:37:56;95972.00;;;13.78;100.00
43878;BME280;29815;48.184;11.268;2023-05-02T09:40:26;95969.31;;;13.73;100.00
43878;BME280;29815;48.184;11.268;2023-05-02T09:42:57;95970.72;;;13.65;100.00
43878;BME280;29815;48.184;11.268;2023-05-02T09:45:26;95973.97;;;13.67;100.00
43878;BME280;29815;48.184;11.268;2023-05-02T09:48:01;95963.97;;;13.63;100.00
43878;BME280;29815;48.184;11.268;2023-05-02T09:50:36;95974.25;;;13.61;100.00
43878;BME280;29815;48.184;11.268;2023-05-02T09:53:08;95969.69;;;13.56;100.00
43878;BME280;29815;48.184;11.268;2023-05-02T09:55:38;95973.44;;;13.60;100.00
43878;BME280;29815;48.184;11.268;2023-05-02T09:58:19;95970.22;;;13.58;100.00
43878;BME280;29815;48.184;11.268;2023-05-02T10:00:50;95985.69;;;13.42;100.00
43878;BME280;29815;48.184;11.268;2023-05-02T10:03:23;95978.97;;;13.35;100.00
43878;BME280;29815;48.184;11.268;2023-05-02T10:05:53;95987.63;;;13.32;100.00
43878;BME280;29815;48.184;11.268;2023-05-02T10:08:27;95987.09;;;13.14;100.00
43878;BME280;29815;48.184;11.268;2023-05-02T10:10:59;95985.00;;;13.01;100.00
43878;BME280;29815;48.184;11.268;2023-05-02T10:13:31;95989.09;;;12.83;100.00
43878;BME280;29815;48.184;11.268;2023-05-02T10:16:03;95988.28;;;12.63;100.00
43878;BME280;29815;48.184;11.268;2023-05-02T10:18:55;95995.34;;;12.43;100.00
43878;BME280;29815;48.184;11.268;2023-05-02T10:21:28;95993.72;;;12.22;100.00
43878;BME280;29815;48.184;11.268;2023-05-02T10:24:01;95985.06;;;12.10;100.00
43878;BME280;29815;48.184;11.268;2023-05-02T10:26:34;95994.25;;;11.99;100.00
43878;BME280;29815;48.184;11.268;2023-05-02T10:29:04;95997.75;;;11.94;100.00
43878;BME280;29815;48.184;11.268;2023-05-02T10:31:34;95999.34;;;11.90;100.00
43878;BME280;29815;48.184;11.268;2023-05-02T10:34:08;95993.94;;;11.85;100.00
43878;BME280;29815;48.184;11.268;2023-05-02T10:36:40;95992.03;;;11.85;100.00
43878;BME280;29815;48.184;11.268;2023-05-02T10:39:11;95988.25;;;11.81;100.00
43878;BME280;29815;48.184;11.268;2023-05-02T10:41:42;95986.63;;;11.80;100.00
43878;BME280;29815;48.184;11.268;2023-05-02T10:44:12;95976.94;;;11.84;100.00
43878;BME280;29815;48.184;11.268;2023-05-02T10:46:41;95979.41;;;11.96;100.00
43878;BME280;29815;48.184;11.268;2023-05-02T10:49:12;95975.91;;;12.01;100.00
43878;BME280;29815;48.184;11.268;2023-05-02T10:51:42;95970.25;;;12.02;100.00
43878;BME280;29815;48.184;11.268;2023-05-02T10:54:21;95966.19;;;12.15;100.00
43878;BME280;29815;48.184;11.268;2023-05-02T10:57:06;95969.97;;;12.19;100.00
43878;BME280;29815;48.184;11.268;2023-05-02T10:59:37;95973.22;;;12.21;100.00
43878;BME280;29815;48.184;11.268;2023-05-02T11:02:52;95971.59;;;12.25;100.00
43878;BME280;29815;48.184;11.268;2023-05-02T11:05:23;95970.50;;;12.36;100.00
43878;BME280;29815;48.184;11.268;2023-05-02T11:08:32;95969.44;;;12.52;100.00
43878;BME280;29815;48.184;11.268;2023-05-02T11:11:44;95971.28;;;12.67;100.00
43878;BME280;29815;48.184;11.268;2023-05-02T11:14:44;95966.91;;;12.92;100.00
43878;BME280;29815;48.184;11.268;2023-05-02T11:17:17;95963.59;;;13.20;100.00
43878;BME280;29815;48.184;11.268;2023-05-02T11:20:27;95972.69;;;13.44;100.00
43878;BME280;29815;48.184;11.268;2023-05-02T11:23:19;95971.03;;;13.53;100.00
43878;BME280;29815;48.184;11.268;2023-05-02T11:25:57;95968.66;;;13.42;100.00
43878;BME280;29815;48.184;11.268;2023-05-02T11:28:43;95966.25;;;13.35;100.00
43878;BME280;29815;48.184;11.268;2023-05-02T11:32:00;95971.69;;;13.25;100.00
43878;BME280;29815;48.184;11.268;2023-05-02T11:34:41;95964.97;;;13.17;100.00
43878;BME280;29815;48.184;11.268;2023-05-02T11:37:13;95969.03;;;13.10;100.00
43878;BME280;29815;48.184;11.268;2023-05-02T11:39:43;95970.13;;;13.09;100.00
43878;BME280;29815;48.184;11.268;2023-05-02T11:42:29;95964.44;;;13.15;100.00
43878;BME280;29815;48.184;11.268;2023-05-02T11:45:01;95969.53;;;13.22;100.00
43878;BME280;29815;48.184;11.268;2023-05-02T11:47:32;95964.66;;;13.34;100.00
43878;BME280;29815;48.184;11.268;2023-05-02T11:50:04;95962.66;;;13.50;100.00
43878;BME280;29815;48.184;11.268;2023-05-02T11:52:37;95968.56;;;13.62;100.00
43878;BME280;29815;48.184;11.268;2023-05-02T11:55:10;95960.44;;;13.67;100.00
43878;BME280;29815;48.184;11.268;2023-05-02T11:57:41;95959.00;;;13.75;100.00
43878;BME280;29815;48.184;11.268;2023-05-02T12:00:14;95964.66;;;13.83;100.00
43878;BME280;29815;48.184;11.268;2023-05-02T12:02:45;95963.78;;;13.93;100.00
43878;BME280;29815;48.184;11.268;2023-05-02T12:05:27;95952.59;;;14.05;100.00
43878;BME280;29815;48.184;11.268;2023-05-02T12:07:57;95962.13;;;14.31;100.00
43878;BME280;29815;48.184;11.268;2023-05-02T12:10:36;95969.94;;;14.43;100.00
43878;BME280;29815;48.184;11.268;2023-05-02T12:13:05;95972.91;;;14.46;100.00
43878;BME280;29815;48.184;11.268;2023-05-02T12:15:38;95964.81;;;14.36;100.00
43878;BME280;29815;48.184;11.268;2023-05-02T12:18:08;95965.63;;;14.37;100.00
43878;BME280;29815;48.184;11.268;2023-05-02T12:20:38;95967.25;;;14.38;100.00
43878;BME280;29815;48.184;11.268;2023-05-02T12:23:07;95959.91;;;14.38;100.00
43878;BME280;29815;48.184;11.268;2023-05-02T12:25:38;95957.34;;;14.57;100.00
43878;BME280;29815;48.184;11.268;2023-05-02T12:28:09;95956.13;;;14.73;100.00
43878;BME280;29815;48.184;11.268;2023-05-02T12:30:40;95958.00;;;15.02;100.00
43878;BME280;29815;48.184;11.268;2023-05-02T12:33:10;95955.50;;;15.29;100.00
43878;BME280;29815;48.184;11.268;2023-05-02T12:35:39;95952.75;;;15.58;100.00
43878;BME280;29815;48.184;11.268;2023-05-02T12:38:12;95950.38;;;15.89;100.00
43878;BME280;29815;48.184;11.268;2023-05-02T12:40:49;95950.69;;;16.06;100.00
43878;BME280;29815;48.184;11.268;2023-05-02T12:43:20;95952.13;;;16.17;100.00
43878;BME280;29815;48.184;11.268;2023-05-02T12:46:08;95955.94;;;16.16;100.00
43878;BME280;29815;48.184;11.268;2023-05-02T12:48:38;95957.53;;;16.04;100.00
43878;BME280;29815;48.184;11.268;2023-05-02T12:51:20;95957.13;;;15.91;100.00
43878;BME280;29815;48.184;11.268;2023-05-02T12:53:50;95956.44;;;15.86;100.00
43878;BME280;29815;48.184;11.268;2023-05-02T12:56:20;95960.25;;;15.85;100.00
43878;BME280;29815;48.184;11.268;2023-05-02T12:58:51;95967.94;;;15.78;100.00
43878;BME280;29815;48.184;11.268;2023-05-02T13:01:22;95962.63;;;15.68;100.00
43878;BME280;29815;48.184;11.268;2023-05-02T13:03:52;95967.19;;;15.48;100.00
43878;BME280;29815;48.184;11.268;2023-05-02T13:06:21;95971.84;;;15.24;100.00
43878;BME280;29815;48.184;11.268;2023-05-02T13:08:51;95972.28;;;15.07;100.00
43878;BME280;29815;48.184;11.268;2023-05-02T13:11:20;95977.06;;;14.92;100.00
43878;BME280;29815;48.184;11.268;2023-05-02T13:13:50;95972.91;;;14.75;100.00
43878;BME280;29815;48.184;11.268;2023-05-02T13:16:23;95972.22;;;14.60;100.00